Time;durP1;ratioP1;P1;durP2;ratioP2;P2;SDS_P1;SDS_P2;PMS_P1;PMS_P2;Temp;Humidity;BMP_temperature;BMP_pressure;BME280_temperature;BME280_humidity;BME280_pressure;Samples;Min_cycle;Max_cycle;Signal;HPM_P1;HPM_P2
2023/03/27 00:01:06;;;;;;;0.63;0.63;;;;;;;;;;4971497;28;20198;-77
2023/03/27 00:03:32;;;;;;;0.57;0.57;;;;;;;;;;4988475;28;20214;-77
2023/03/27 00:06:01;;;;;;;0.50;0.50;;;;;;;;;;4988780;28;20180;-77
2023/03/27 00:08:27;;;;;;;0.50;0.50;;;;;;;;;;4973601;28;20179;-77
2023/03/27 00:10:54;;;;;;;0.40;0.40;;;;;;;;;;4972305;28;20204;-77
2023/03/27 00:13:19;;;;;;;0.37;0.37;;;;;;;;;;4972545;28;20184;-77
2023/03/27 00:15:45;;;;;;;0.50;0.50;;;;;;;;;;4992643;28;20182;-77
2023/03/27 00:18:10;;;;;;;0.80;0.80;;;;;;;;;;4969280;28;20191;-77
2023/03/27 00:20:36;;;;;;;0.40;0.40;;;;;;;;;;4994389;28;20180;-77
2023/03/27 00:23:02;;;;;;;0.57;0.57;;;;;;;;;;4974868;28;20210;-77
2023/03/27 00:25:27;;;;;;;1.90;0.80;;;;;;;;;;4973205;28;20209;-77
2023/03/27 00:27:55;;;;;;;0.90;0.90;;;;;;;;;;4972575;28;20185;-77
2023/03/27 00:30:20;;;;;;;0.90;0.90;;;;;;;;;;4990934;28;20187;-77
2023/03/27 00:32:45;;;;;;;1.43;1.33;;;;;;;;;;4972470;28;20187;-77
2023/03/27 00:35:12;;;;;;;1.27;1.17;;;;;;;;;;4991192;28;20169;-77
2023/03/27 00:37:37;;;;;;;1.50;1.40;;;;;;;;;;4973327;28;20182;-77
2023/03/27 00:40:07;;;;;;;1.33;1.23;;;;;;;;;;4977519;28;20186;-77
2023/03/27 00:42:32;;;;;;;2.00;1.80;;;;;;;;;;4970745;28;20205;-77
2023/03/27 00:44:57;;;;;;;1.57;1.47;;;;;;;;;;4993711;28;20209;-77
2023/03/27 00:47:34;;;;;;;1.37;1.27;;;;;;;;;;4970568;28;20316;-77
2023/03/27 00:50:00;;;;;;;1.53;1.43;;;;;;;;;;4966235;28;20175;-77
2023/03/27 00:52:28;;;;;;;1.47;1.37;;;;;;;;;;4971166;28;20187;-77
2023/03/27 00:54:54;;;;;;;2.00;1.80;;;;;;;;;;4970277;28;20189;-77
2023/03/27 00:57:20;;;;;;;2.57;2.03;;;;;;;;;;4970452;28;20222;-77
2023/03/27 00:59:47;;;;;;;1.93;1.83;;;;;;;;;;4966297;28;20185;-77
2023/03/27 01:02:13;;;;;;;3.60;2.57;;;;;;;;;;4970283;28;20187;-77
2023/03/27 01:04:40;;;;;;;2.47;2.10;;;;;;;;;;4969005;28;20197;-77
2023/03/27 01:07:06;;;;;;;2.30;2.10;;;;;;;;;;4971752;28;20172;-77
2023/03/27 01:09:32;;;;;;;3.23;2.93;;;;;;;;;;4969580;28;20216;-77
2023/03/27 01:12:30;;;;;;;3.50;3.20;;;;;;;;;;4972272;28;20182;-77
2023/03/27 01:15:07;;;;;;;4.00;2.10;;;;;;;;;;4942316;28;20277;-77
2023/03/27 01:17:36;;;;;;;4.33;3.93;;;;;;;;;;4962758;28;20196;-77
2023/03/27 01:20:04;;;;;;;5.67;3.77;;;;;;;;;;4969960;28;20173;-77
2023/03/27 01:22:38;;;;;;;3.33;2.83;;;;;;;;;;4991582;28;20177;-77
2023/03/27 01:25:22;;;;;;;4.33;2.80;;;;;;;;;;4970173;28;20219;-77
2023/03/27 01:27:47;;;;;;;7.43;3.03;;;;;;;;;;4974708;28;20181;-76
2023/03/27 01:30:17;;;;;;;3.35;2.92;;;;;;;;;;4967510;28;20188;-77
2023/03/27 01:32:55;;;;;;;7.67;3.87;;;;;;;;;;4971016;28;20188;-77
2023/03/27 01:35:23;;;;;;;19.07;4.80;;;;;;;;;;4981975;28;20181;-77
2023/03/27 01:37:55;;;;;;;11.90;4.07;;;;;;;;;;4984843;28;20227;-77
2023/03/27 01:40:37;;;;;;;39.33;5.80;;;;;;;;;;4970111;28;20181;-77
2023/03/27 01:43:07;;;;;;;11.57;3.73;;;;;;;;;;4964845;28;20301;-77
2023/03/27 01:45:39;;;;;;;29.90;6.23;;;;;;;;;;4974088;28;20236;-77
2023/03/27 01:48:10;;;;;;;2.77;2.17;;;;;;;;;;4976005;28;20221;-77
2023/03/27 01:50:57;;;;;;;7.83;4.90;;;;;;;;;;4993078;28;20184;-77
2023/03/27 01:53:31;;;;;;;5.63;3.67;;;;;;;;;;4992331;28;20207;-77
2023/03/27 01:55:59;;;;;;;5.47;4.67;;;;;;;;;;4984725;28;20280;-77
2023/03/27 01:58:28;;;;;;;6.90;4.80;;;;;;;;;;4975126;28;20180;-77
2023/03/27 02:00:55;;;;;;;6.67;4.70;;;;;;;;;;4979588;28;20192;-77
2023/03/27 02:03:28;;;;;;;5.53;3.33;;;;;;;;;;4991538;28;20183;-77
2023/03/27 02:06:01;;;;;;;7.53;4.97;;;;;;;;;;4992749;28;20188;-76
2023/03/27 02:08:34;;;;;;;8.80;4.80;;;;;;;;;;4977355;28;20192;-76
2023/03/27 02:11:00;;;;;;;3.87;3.40;;;;;;;;;;4973309;28;20234;-77
2023/03/27 02:13:38;;;;;;;5.17;4.27;;;;;;;;;;4993693;28;20188;-77
2023/03/27 02:16:04;;;;;;;4.23;3.80;;;;;;;;;;4978558;28;20190;-77
2023/03/27 02:18:35;;;;;;;8.00;3.57;;;;;;;;;;4973929;28;20191;-77
2023/03/27 02:21:04;;;;;;;8.23;4.80;;;;;;;;;;4992659;28;20251;-77
2023/03/27 02:23:32;;;;;;;4.13;3.60;;;;;;;;;;4990596;28;20272;-77
2023/03/27 02:25:58;;;;;;;8.83;4.57;;;;;;;;;;4975272;28;20188;-77
2023/03/27 02:28:35;;;;;;;9.43;3.93;;;;;;;;;;4975268;28;20176;-77
2023/03/27 02:31:05;;;;;;;7.50;5.27;;;;;;;;;;4995949;28;20202;-77
2023/03/27 02:33:34;;;;;;;9.40;4.73;;;;;;;;;;4973598;28;20193;-77
2023/03/27 02:36:40;;;;;;;4.37;3.30;;;;;;;;;;4983773;28;20176;-77
2023/03/27 02:39:12;;;;;;;6.03;4.23;;;;;;;;;;4975857;28;20188;-77
2023/03/27 02:41:55;;;;;;;8.03;3.87;;;;;;;;;;4975253;28;20188;-77
2023/03/27 02:44:34;;;;;;;6.47;2.47;;;;;;;;;;4986007;28;20226;-77
2023/03/27 02:47:02;;;;;;;7.43;4.17;;;;;;;;;;4972741;28;20319;-77
2023/03/27 02:49:30;;;;;;;5.33;3.33;;;;;;;;;;4973012;28;20192;-77
2023/03/27 02:52:07;;;;;;;8.13;4.40;;;;;;;;;;4971696;28;20185;-77
2023/03/27 02:54:42;;;;;;;7.73;3.20;;;;;;;;;;4969958;28;20227;-77
2023/03/27 02:57:10;;;;;;;6.10;3.70;;;;;;;;;;4969224;28;20188;-77
2023/03/27 02:59:41;;;;;;;3.93;2.17;;;;;;;;;;4973675;28;20181;-77
2023/03/27 03:02:13;;;;;;;7.03;2.77;;;;;;;;;;4970837;28;20205;-77
2023/03/27 03:04:41;;;;;;;2.27;2.07;;;;;;;;;;4972519;28;20216;-77
2023/03/27 03:07:10;;;;;;;7.03;2.40;;;;;;;;;;4972763;28;20177;-77
2023/03/27 03:09:36;;;;;;;5.17;2.17;;;;;;;;;;4970586;28;20184;-77
2023/03/27 03:12:01;;;;;;;5.67;2.57;;;;;;;;;;4973976;28;20179;-77
2023/03/27 03:14:28;;;;;;;8.20;2.23;;;;;;;;;;4991160;28;20212;-77
2023/03/27 03:16:54;;;;;;;5.83;2.60;;;;;;;;;;4974104;28;20208;-77
2023/03/27 03:19:20;;;;;;;7.70;3.57;;;;;;;;;;4971590;28;20181;-77
2023/03/27 03:21:48;;;;;;;7.17;3.17;;;;;;;;;;4971644;28;20231;-77
2023/03/27 03:24:17;;;;;;;6.67;2.67;;;;;;;;;;4972048;28;20216;-77
2023/03/27 03:26:44;;;;;;;5.33;2.63;;;;;;;;;;4972126;28;20181;-77
2023/03/27 03:29:09;;;;;;;5.23;2.73;;;;;;;;;;4975369;28;20222;-77
2023/03/27 03:31:43;;;;;;;5.63;2.13;;;;;;;;;;4970402;28;20189;-77
2023/03/27 03:34:13;;;;;;;10.93;3.27;;;;;;;;;;4968689;28;20319;-77
2023/03/27 03:36:40;;;;;;;2.37;1.73;;;;;;;;;;4969092;28;20270;-77
2023/03/27 03:39:06;;;;;;;4.73;1.93;;;;;;;;;;4967517;28;20189;-77
2023/03/27 03:41:31;;;;;;;2.23;1.90;;;;;;;;;;4971468;28;20197;-77
2023/03/27 03:43:56;;;;;;;7.20;2.47;;;;;;;;;;4971048;28;20216;-77
2023/03/27 03:46:21;;;;;;;3.00;2.17;;;;;;;;;;4981481;28;20223;-77
2023/03/27 03:48:47;;;;;;;3.77;1.73;;;;;;;;;;4974849;28;20187;-77
2023/03/27 03:51:12;;;;;;;3.40;1.47;;;;;;;;;;4974991;28;20183;-77
2023/03/27 03:53:37;;;;;;;2.70;1.60;;;;;;;;;;4991837;28;20191;-77
2023/03/27 03:56:02;;;;;;;9.30;3.23;;;;;;;;;;4974157;28;20191;-77
2023/03/27 03:58:28;;;;;;;2.50;1.90;;;;;;;;;;4982139;28;20191;-77
2023/03/27 04:00:53;;;;;;;2.20;1.57;;;;;;;;;;4991279;28;20212;-77
2023/03/27 04:03:19;;;;;;;2.17;1.97;;;;;;;;;;4989907;28;20172;-77
2023/03/27 04:05:44;;;;;;;5.60;1.90;;;;;;;;;;4989351;28;20210;-77
2023/03/27 04:08:10;;;;;;;10.83;2.70;;;;;;;;;;4974429;28;20176;-77
2023/03/27 04:10:37;;;;;;;7.63;2.50;;;;;;;;;;4971025;28;20179;-77
2023/03/27 04:13:02;;;;;;;3.17;1.33;;;;;;;;;;4974274;28;20184;-77
2023/03/27 04:15:27;;;;;;;5.73;1.77;;;;;;;;;;4973821;28;20180;-77
2023/03/27 04:17:52;;;;;;;4.80;2.33;;;;;;;;;;4974025;28;20184;-77
2023/03/27 04:20:18;;;;;;;6.50;2.27;;;;;;;;;;4994694;28;20183;-78
2023/03/27 04:22:45;;;;;;;5.63;2.17;;;;;;;;;;4973464;28;20210;-77
2023/03/27 04:25:11;;;;;;;4.63;1.40;;;;;;;;;;4972099;28;20199;-77
2023/03/27 04:27:36;;;;;;;4.57;2.03;;;;;;;;;;4975630;28;20180;-79
2023/03/27 04:30:01;;;;;;;4.93;1.80;;;;;;;;;;4976525;28;20180;-77
2023/03/27 04:32:27;;;;;;;5.70;2.43;;;;;;;;;;4973715;28;20187;-77
2023/03/27 04:34:55;;;;;;;5.27;2.10;;;;;;;;;;4989516;28;20290;-77
2023/03/27 04:37:21;;;;;;;5.00;1.60;;;;;;;;;;4972908;28;20192;-77
2023/03/27 04:39:47;;;;;;;5.17;2.73;;;;;;;;;;4973221;28;20188;-77
2023/03/27 04:42:15;;;;;;;1.50;0.90;;;;;;;;;;4972317;28;20218;-77
2023/03/27 04:44:40;;;;;;;5.30;1.97;;;;;;;;;;4995414;28;20243;-77
2023/03/27 04:47:09;;;;;;;4.97;1.97;;;;;;;;;;4970876;28;20343;-77
2023/03/27 04:49:39;;;;;;;3.63;1.87;;;;;;;;;;4971460;28;20328;-78
2023/03/27 04:52:07;;;;;;;4.40;1.77;;;;;;;;;;4970406;28;20216;-78
2023/03/27 04:54:33;;;;;;;2.70;1.67;;;;;;;;;;4967836;28;20194;-78
2023/03/27 04:57:00;;;;;;;4.50;1.77;;;;;;;;;;4969789;28;20184;-78
2023/03/27 04:59:29;;;;;;;6.47;1.83;;;;;;;;;;4970818;28;20189;-78
2023/03/27 05:01:56;;;;;;;8.13;1.63;;;;;;;;;;4967408;28;20195;-77
2023/03/27 05:04:25;;;;;;;3.77;2.40;;;;;;;;;;4977580;28;20208;-78
2023/03/27 05:06:50;;;;;;;6.90;2.60;;;;;;;;;;4972057;28;20177;-77
2023/03/27 05:09:15;;;;;;;5.37;1.93;;;;;;;;;;4969158;28;20222;-77
2023/03/27 05:11:41;;;;;;;4.33;2.00;;;;;;;;;;4969820;28;20208;-78
2023/03/27 05:14:06;;;;;;;2.50;1.77;;;;;;;;;;4970710;28;20191;-77
2023/03/27 05:16:32;;;;;;;4.70;1.63;;;;;;;;;;4970286;28;20219;-78
2023/03/27 05:18:57;;;;;;;4.17;1.50;;;;;;;;;;4971472;28;20185;-78
2023/03/27 05:21:22;;;;;;;6.97;1.67;;;;;;;;;;4971709;28;20407;-78
2023/03/27 05:23:48;;;;;;;8.77;2.17;;;;;;;;;;4973430;28;20279;-78
2023/03/27 05:26:13;;;;;;;8.60;2.00;;;;;;;;;;4973289;28;20200;-78
2023/03/27 05:28:38;;;;;;;3.03;1.07;;;;;;;;;;4975026;28;20180;-77
2023/03/27 05:31:04;;;;;;;4.30;1.53;;;;;;;;;;4973183;28;20244;-78
2023/03/27 05:33:29;;;;;;;4.57;1.80;;;;;;;;;;4971314;28;20274;-78
2023/03/27 05:35:56;;;;;;;5.87;1.40;;;;;;;;;;4970020;28;20192;-78
2023/03/27 05:38:21;;;;;;;5.67;2.07;;;;;;;;;;4974649;28;20228;-78
2023/03/27 05:40:46;;;;;;;7.57;2.50;;;;;;;;;;4972581;28;20181;-78
2023/03/27 05:43:12;;;;;;;8.40;2.60;;;;;;;;;;4955944;28;20207;-78
2023/03/27 05:45:37;;;;;;;4.13;1.87;;;;;;;;;;4971933;28;20235;-78
2023/03/27 05:48:02;;;;;;;2.63;1.90;;;;;;;;;;4976673;28;20172;-78
2023/03/27 05:50:32;;;;;;;8.17;2.57;;;;;;;;;;4975553;28;20183;-79
2023/03/27 05:53:05;;;;;;;7.40;3.70;;;;;;;;;;4972456;28;20184;-78
2023/03/27 05:55:31;;;;;;;8.10;2.37;;;;;;;;;;4987762;28;20187;-78
2023/03/27 05:57:57;;;;;;;4.70;1.00;;;;;;;;;;4984110;28;20270;-78
2023/03/27 06:00:26;;;;;;;1.87;1.33;;;;;;;;;;4977609;28;20222;-78
2023/03/27 06:02:55;;;;;;;6.20;1.60;;;;;;;;;;4973193;28;20180;-78
2023/03/27 06:05:21;;;;;;;6.80;1.83;;;;;;;;;;4985361;28;20203;-78
2023/03/27 06:07:46;;;;;;;3.70;1.63;;;;;;;;;;4990518;28;20263;-78
2023/03/27 06:10:13;;;;;;;5.30;1.73;;;;;;;;;;4976414;28;20234;-78
2023/03/27 06:12:38;;;;;;;2.20;1.07;;;;;;;;;;4978499;28;20291;-78
2023/03/27 06:15:04;;;;;;;3.90;1.67;;;;;;;;;;4982619;28;20242;-78
2023/03/27 06:17:29;;;;;;;3.00;1.53;;;;;;;;;;4979356;28;20186;-78
2023/03/27 06:19:55;;;;;;;2.23;1.40;;;;;;;;;;4977507;28;20176;-78
2023/03/27 06:22:21;;;;;;;7.63;1.80;;;;;;;;;;4969682;28;20184;-78
2023/03/27 06:24:46;;;;;;;3.13;1.50;;;;;;;;;;4976417;28;20203;-78
2023/03/27 06:27:12;;;;;;;3.50;1.97;;;;;;;;;;4976382;28;20203;-78
2023/03/27 06:29:37;;;;;;;3.43;2.13;;;;;;;;;;4977409;28;20187;-78
2023/03/27 06:32:03;;;;;;;5.30;2.00;;;;;;;;;;4984672;28;20222;-78
2023/03/27 06:34:28;;;;;;;5.67;2.30;;;;;;;;;;4976204;28;20179;-79
2023/03/27 06:36:53;;;;;;;1.70;1.00;;;;;;;;;;4975922;28;20343;-78
2023/03/27 06:39:19;;;;;;;2.63;1.77;;;;;;;;;;4987234;28;20187;-78
2023/03/27 06:41:44;;;;;;;9.17;2.13;;;;;;;;;;4979809;28;20272;-78
2023/03/27 06:44:09;;;;;;;9.90;2.27;;;;;;;;;;4975666;28;20207;-78
2023/03/27 06:46:35;;;;;;;5.73;2.20;;;;;;;;;;4988804;28;20288;-78
2023/03/27 06:49:01;;;;;;;3.60;1.93;;;;;;;;;;4977495;28;20191;-78
2023/03/27 06:51:29;;;;;;;6.33;2.17;;;;;;;;;;4975215;28;20175;-78
2023/03/27 06:53:54;;;;;;;12.97;2.60;;;;;;;;;;4976047;28;20190;-77
2023/03/27 06:56:20;;;;;;;5.50;1.37;;;;;;;;;;4991595;28;20272;-78
2023/03/27 06:58:45;;;;;;;6.97;1.90;;;;;;;;;;4998285;28;20223;-77
2023/03/27 07:01:11;;;;;;;7.73;2.10;;;;;;;;;;4991488;28;20184;-77
2023/03/27 07:03:37;;;;;;;8.37;2.90;;;;;;;;;;4976358;28;20184;-77
2023/03/27 07:06:02;;;;;;;9.13;2.27;;;;;;;;;;4972092;28;20219;-77
2023/03/27 07:08:28;;;;;;;5.60;1.97;;;;;;;;;;4974013;28;20222;-77
2023/03/27 07:10:53;;;;;;;3.93;2.77;;;;;;;;;;4989246;28;20172;-77
2023/03/27 07:13:19;;;;;;;6.90;2.67;;;;;;;;;;4977317;28;20206;-77
2023/03/27 07:15:44;;;;;;;2.90;2.00;;;;;;;;;;4976484;28;20266;-76
2023/03/27 07:18:10;;;;;;;7.83;2.10;;;;;;;;;;4975840;28;20192;-76
2023/03/27 07:20:35;;;;;;;5.40;1.50;;;;;;;;;;4977069;28;20180;-76
2023/03/27 07:23:01;;;;;;;13.37;2.33;;;;;;;;;;4992339;28;20260;-76
2023/03/27 07:25:27;;;;;;;2.90;1.33;;;;;;;;;;4973055;28;20192;-77
2023/03/27 07:28:01;;;;;;;3.87;1.77;;;;;;;;;;4974068;28;20176;-75
2023/03/27 07:30:27;;;;;;;7.40;2.73;;;;;;;;;;4976415;28;20185;-74
2023/03/27 07:32:52;;;;;;;5.47;2.37;;;;;;;;;;4975252;28;20279;-74
2023/03/27 07:35:18;;;;;;;6.47;2.87;;;;;;;;;;4972525;28;20184;-74
2023/03/27 07:37:44;;;;;;;5.00;2.10;;;;;;;;;;4974659;28;20184;-75
2023/03/27 07:40:13;;;;;;;1.20;1.10;;;;;;;;;;4980151;28;20183;-75
2023/03/27 07:42:43;;;;;;;4.10;2.13;;;;;;;;;;4989791;28;20239;-74
2023/03/27 07:45:09;;;;;;;3.40;1.80;;;;;;;;;;4992484;28;20202;-75
2023/03/27 07:47:35;;;;;;;4.77;1.60;;;;;;;;;;4972818;28;20319;-75
2023/03/27 07:50:01;;;;;;;6.47;2.07;;;;;;;;;;4992455;28;20176;-74
2023/03/27 07:52:28;;;;;;;9.83;2.33;;;;;;;;;;4975047;28;20222;-74
2023/03/27 07:54:55;;;;;;;1.50;1.40;;;;;;;;;;4975413;28;20183;-75
2023/03/27 07:57:20;;;;;;;6.10;1.83;;;;;;;;;;4992158;28;20176;-75
2023/03/27 07:59:46;;;;;;;3.57;1.50;;;;;;;;;;4974596;28;20226;-75
2023/03/27 08:02:12;;;;;;;7.60;2.57;;;;;;;;;;4975389;28;20271;-75
2023/03/27 08:04:38;;;;;;;7.03;1.90;;;;;;;;;;4991445;28;20200;-74
2023/03/27 08:07:04;;;;;;;3.47;1.20;;;;;;;;;;4994466;28;20179;-74
2023/03/27 08:09:29;;;;;;;6.20;1.73;;;;;;;;;;4982962;28;20207;-75
2023/03/27 08:11:54;;;;;;;9.63;1.43;;;;;;;;;;4977890;28;20183;-75
2023/03/27 08:14:19;;;;;;;3.50;1.63;;;;;;;;;;4975088;28;20191;-74
2023/03/27 08:16:45;;;;;;;3.70;2.37;;;;;;;;;;4979015;28;20180;-75
2023/03/27 08:19:10;;;;;;;2.73;1.30;;;;;;;;;;4977163;28;20180;-74
2023/03/27 08:21:36;;;;;;;5.80;2.20;;;;;;;;;;4974326;28;20176;-74
2023/03/27 08:24:03;;;;;;;4.83;2.07;;;;;;;;;;4976012;28;20200;-75
2023/03/27 08:26:28;;;;;;;6.90;2.43;;;;;;;;;;4975141;28;20191;-75
2023/03/27 08:28:55;;;;;;;3.63;1.87;;;;;;;;;;4978855;28;20184;-75
2023/03/27 08:31:20;;;;;;;5.57;1.80;;;;;;;;;;4977280;28;20178;-74
2023/03/27 08:33:45;;;;;;;5.00;1.53;;;;;;;;;;4992239;28;20263;-74
2023/03/27 08:36:13;;;;;;;3.03;1.53;;;;;;;;;;4975449;28;20226;-74
2023/03/27 08:38:38;;;;;;;2.43;1.53;;;;;;;;;;4974539;28;20184;-74
2023/03/27 08:41:04;;;;;;;2.13;1.63;;;;;;;;;;4974696;28;20191;-74
2023/03/27 08:43:34;;;;;;;3.03;1.70;;;;;;;;;;4973166;28;20287;-74
2023/03/27 08:46:18;;;;;;;5.63;2.07;;;;;;;;;;4969577;28;20242;-74
2023/03/27 08:49:10;;;;;;;1.43;1.17;;;;;;;;;;4968278;28;20264;-74
2023/03/27 08:51:52;;;;;;;1.37;1.27;;;;;;;;;;4965404;28;20264;-74
2023/03/27 08:54:20;;;;;;;3.43;1.60;;;;;;;;;;4971266;28;20204;-74
2023/03/27 08:56:46;;;;;;;4.53;1.57;;;;;;;;;;4980042;28;20181;-74
2023/03/27 08:59:16;;;;;;;3.93;1.13;;;;;;;;;;4974800;28;20251;-75
2023/03/27 09:01:53;;;;;;;6.10;2.23;;;;;;;;;;4974196;28;20527;-74
2023/03/27 09:04:58;;;;;;;4.23;2.00;;;;;;;;;;4974738;28;20208;-74
2023/03/27 09:07:42;;;;;;;1.63;1.43;;;;;;;;;;4942321;29;20209;-74
2023/03/27 09:10:16;;;;;;;3.70;1.93;;;;;;;;;;4937696;29;20184;-74
2023/03/27 09:12:42;;;;;;;1.60;1.23;;;;;;;;;;4922945;29;20485;-74
2023/03/27 09:15:08;;;;;;;5.07;1.57;;;;;;;;;;4935183;29;20198;-75
2023/03/27 09:17:36;;;;;;;3.83;1.53;;;;;;;;;;4935332;29;20186;-75
2023/03/27 09:20:05;;;;;;;5.20;2.10;;;;;;;;;;4918615;29;20190;-75
2023/03/27 09:22:39;;;;;;;9.63;2.20;;;;;;;;;;4922085;29;20248;-75
2023/03/27 09:25:13;;;;;;;1.97;1.33;;;;;;;;;;4933214;28;20216;-75
2023/03/27 09:27:42;;;;;;;6.27;1.93;;;;;;;;;;4939890;29;20195;-75
2023/03/27 09:30:10;;;;;;;9.33;1.90;;;;;;;;;;4940193;29;20189;-75
2023/03/27 09:32:36;;;;;;;10.53;2.50;;;;;;;;;;4934806;29;20237;-75
2023/03/27 09:35:03;;;;;;;5.40;1.90;;;;;;;;;;4923237;29;20193;-75
2023/03/27 09:37:28;;;;;;;6.43;1.97;;;;;;;;;;4925905;28;20196;-75
2023/03/27 09:39:53;;;;;;;9.67;2.90;;;;;;;;;;4971706;28;20176;-75
2023/03/27 09:42:25;;;;;;;2.07;1.13;;;;;;;;;;4973512;28;20201;-75
2023/03/27 09:45:10;;;;;;;5.77;2.37;;;;;;;;;;4967852;28;20200;-75
2023/03/27 09:47:39;;;;;;;2.83;1.30;;;;;;;;;;4985449;28;20235;-75
2023/03/27 09:50:14;;;;;;;3.63;1.63;;;;;;;;;;4975405;28;20183;-75
2023/03/27 09:52:40;;;;;;;1.93;1.60;;;;;;;;;;4975883;28;20184;-75
2023/03/27 09:55:22;;;;;;;3.07;1.53;;;;;;;;;;4974909;28;20169;-75
2023/03/27 09:57:48;;;;;;;5.00;1.40;;;;;;;;;;4973017;28;20219;-75
2023/03/27 10:00:30;;;;;;;6.03;1.53;;;;;;;;;;4975204;28;20204;-75
2023/03/27 10:03:04;;;;;;;4.20;1.90;;;;;;;;;;4966564;28;20193;-75
2023/03/27 10:05:30;;;;;;;5.17;2.70;;;;;;;;;;4974324;28;20188;-75
2023/03/27 10:07:56;;;;;;;5.27;2.47;;;;;;;;;;4974086;28;20180;-75
2023/03/27 10:10:23;;;;;;;1.83;1.73;;;;;;;;;;4973612;28;20275;-75
2023/03/27 10:12:52;;;;;;;2.80;1.60;;;;;;;;;;4974715;28;20255;-75
2023/03/27 10:15:35;;;;;;;7.23;2.00;;;;;;;;;;4974065;28;20181;-75
2023/03/27 10:18:03;;;;;;;1.63;0.80;;;;;;;;;;4973371;28;20189;-75
2023/03/27 10:20:28;;;;;;;3.73;1.73;;;;;;;;;;4969544;28;20180;-75
2023/03/27 10:22:55;;;;;;;10.43;2.37;;;;;;;;;;4974847;28;20184;-75
2023/03/27 10:25:25;;;;;;;1.43;1.37;;;;;;;;;;4973409;28;20205;-75
2023/03/27 10:27:51;;;;;;;1.50;1.40;;;;;;;;;;4972462;28;20189;-75
2023/03/27 10:30:28;;;;;;;1.87;1.40;;;;;;;;;;4973389;28;20173;-75
2023/03/27 10:32:53;;;;;;;3.50;1.67;;;;;;;;;;4973096;28;20172;-75
2023/03/27 10:35:38;;;;;;;7.03;2.00;;;;;;;;;;4974849;28;20184;-75
2023/03/27 10:38:06;;;;;;;5.83;2.30;;;;;;;;;;4973060;28;20215;-74
2023/03/27 10:40:35;;;;;;;3.93;1.73;;;;;;;;;;4968898;28;20184;-74
2023/03/27 10:43:05;;;;;;;4.57;1.80;;;;;;;;;;4969353;28;20292;-75
2023/03/27 10:45:31;;;;;;;2.77;1.57;;;;;;;;;;4967062;28;20200;-75
2023/03/27 10:47:58;;;;;;;3.93;1.60;;;;;;;;;;4979704;28;20187;-74
2023/03/27 10:50:29;;;;;;;4.03;1.10;;;;;;;;;;4976354;28;20179;-75
2023/03/27 10:52:55;;;;;;;1.57;1.23;;;;;;;;;;4991771;28;20211;-75
2023/03/27 10:55:20;;;;;;;1.67;1.50;;;;;;;;;;4995835;28;20180;-75
2023/03/27 10:57:50;;;;;;;4.70;1.33;;;;;;;;;;4992387;28;20263;-75
2023/03/27 11:00:21;;;;;;;2.03;0.70;;;;;;;;;;4976339;28;20192;-74
2023/03/27 11:02:50;;;;;;;1.20;1.10;;;;;;;;;;4976008;28;20180;-75
2023/03/27 11:05:18;;;;;;;2.47;1.40;;;;;;;;;;4990605;28;20204;-75
2023/03/27 11:08:07;;;;;;;1.10;1.00;;;;;;;;;;4988357;28;20176;-75
2023/03/27 11:10:38;;;;;;;4.20;1.80;;;;;;;;;;4985796;28;20201;-75
2023/03/27 11:13:08;;;;;;;9.30;2.03;;;;;;;;;;4976015;28;20205;-75
2023/03/27 11:15:37;;;;;;;2.40;1.50;;;;;;;;;;4990514;28;20234;-75
2023/03/27 11:18:05;;;;;;;4.97;1.93;;;;;;;;;;4991374;28;20193;-75
2023/03/27 11:20:32;;;;;;;4.57;1.60;;;;;;;;;;4982126;28;20283;-75
2023/03/27 11:23:21;;;;;;;2.03;1.40;;;;;;;;;;4996357;28;20211;-75
2023/03/27 11:25:50;;;;;;;3.10;1.17;;;;;;;;;;4967169;28;20220;-75
2023/03/27 11:28:16;;;;;;;3.37;1.53;;;;;;;;;;4975320;28;20200;-75
2023/03/27 11:30:55;;;;;;;5.17;1.50;;;;;;;;;;4993042;28;20172;-75
2023/03/27 11:33:39;;;;;;;6.70;1.60;;;;;;;;;;4972892;28;20245;-75
2023/03/27 11:36:28;;;;;;;6.30;1.80;;;;;;;;;;4976367;28;20187;-75
2023/03/27 11:39:14;;;;;;;4.33;1.90;;;;;;;;;;4988131;28;20265;-75
2023/03/27 11:41:39;;;;;;;4.50;2.37;;;;;;;;;;4983049;28;20231;-75
2023/03/27 11:44:05;;;;;;;2.30;1.23;;;;;;;;;;4972811;28;20204;-75
2023/03/27 11:46:44;;;;;;;1.17;0.97;;;;;;;;;;4972396;28;20288;-75
2023/03/27 11:49:15;;;;;;;1.30;1.20;;;;;;;;;;4978926;28;20177;-75
2023/03/27 11:51:50;;;;;;;7.17;1.40;;;;;;;;;;4972185;28;20179;-75
2023/03/27 11:54:19;;;;;;;3.27;1.97;;;;;;;;;;4971524;28;20201;-75
2023/03/27 11:56:53;;;;;;;5.33;1.67;;;;;;;;;;4972157;28;20200;-75
2023/03/27 11:59:37;;;;;;;3.23;1.70;;;;;;;;;;4973435;28;20177;-75
2023/03/27 12:02:15;;;;;;;3.53;1.50;;;;;;;;;;4967854;28;20239;-75
2023/03/27 12:04:41;;;;;;;1.13;0.90;;;;;;;;;;4972711;28;20244;-75
2023/03/27 12:07:11;;;;;;;2.43;1.60;;;;;;;;;;4970035;28;20216;-76
2023/03/27 12:09:58;;;;;;;5.33;1.47;;;;;;;;;;4971972;28;20206;-75
2023/03/27 12:12:26;;;;;;;3.03;1.03;;;;;;;;;;4971488;28;20183;-75
2023/03/27 12:14:52;;;;;;;3.90;1.20;;;;;;;;;;4971100;28;20177;-75
2023/03/27 12:17:26;;;;;;;4.50;1.30;;;;;;;;;;4971111;28;20184;-75
2023/03/27 12:20:08;;;;;;;1.13;1.03;;;;;;;;;;4972034;28;20180;-75
2023/03/27 12:22:33;;;;;;;4.03;1.57;;;;;;;;;;4981371;28;20186;-75
2023/03/27 12:25:18;;;;;;;4.03;1.63;;;;;;;;;;4978919;28;20214;-75
2023/03/27 12:27:52;;;;;;;3.43;1.53;;;;;;;;;;4972117;28;20194;-75
2023/03/27 12:30:18;;;;;;;5.10;2.13;;;;;;;;;;4971076;28;20187;-75
2023/03/27 12:33:09;;;;;;;2.37;1.57;;;;;;;;;;4971460;28;20181;-75
2023/03/27 12:35:38;;;;;;;3.97;1.70;;;;;;;;;;4972103;28;20188;-75
2023/03/27 12:38:11;;;;;;;2.83;1.60;;;;;;;;;;4971663;28;20196;-75
2023/03/27 12:40:36;;;;;;;3.10;2.00;;;;;;;;;;4968804;28;20182;-76
2023/03/27 12:43:06;;;;;;;2.97;1.77;;;;;;;;;;4971535;28;20258;-75
2023/03/27 12:45:31;;;;;;;3.67;2.30;;;;;;;;;;4968838;28;20220;-75
2023/03/27 12:48:03;;;;;;;3.30;1.87;;;;;;;;;;4992196;28;20236;-75
2023/03/27 12:50:32;;;;;;;7.90;1.83;;;;;;;;;;4977923;28;20181;-76
2023/03/27 12:53:01;;;;;;;2.53;1.70;;;;;;;;;;4974376;28;20186;-75
2023/03/27 12:55:28;;;;;;;4.20;1.63;;;;;;;;;;4974884;28;20191;-75
2023/03/27 12:57:53;;;;;;;6.80;1.60;;;;;;;;;;4978961;28;20213;-76
2023/03/27 13:00:24;;;;;;;5.83;2.40;;;;;;;;;;4991074;28;20195;-75
2023/03/27 13:03:10;;;;;;;4.97;1.93;;;;;;;;;;4991156;28;20212;-75
2023/03/27 13:05:53;;;;;;;2.57;1.33;;;;;;;;;;4971099;28;20201;-75
2023/03/27 13:08:37;;;;;;;5.67;1.67;;;;;;;;;;4975803;28;20261;-76
2023/03/27 13:11:17;;;;;;;3.47;1.80;;;;;;;;;;4969194;28;20179;-76
2023/03/27 13:13:51;;;;;;;4.73;2.60;;;;;;;;;;4971513;28;20186;-75
2023/03/27 13:16:25;;;;;;;2.83;1.43;;;;;;;;;;4970387;28;20192;-75
2023/03/27 13:19:01;;;;;;;3.07;1.83;;;;;;;;;;4976768;28;20180;-75
2023/03/27 13:21:47;;;;;;;2.63;1.70;;;;;;;;;;4991286;28;20175;-75
2023/03/27 13:24:31;;;;;;;3.80;1.70;;;;;;;;;;4974972;28;20209;-75
2023/03/27 13:27:05;;;;;;;6.83;2.33;;;;;;;;;;4971072;28;20185;-75
2023/03/27 13:29:31;;;;;;;1.40;1.30;;;;;;;;;;4978200;28;20207;-75
2023/03/27 13:32:01;;;;;;;4.63;1.90;;;;;;;;;;4973535;28;20201;-75
2023/03/27 13:34:58;;;;;;;3.03;1.23;;;;;;;;;;4982967;28;20178;-75
2023/03/27 13:37:24;;;;;;;4.37;1.87;;;;;;;;;;4991002;28;20272;-75
2023/03/27 13:39:56;;;;;;;2.73;1.70;;;;;;;;;;4988138;28;20191;-75
2023/03/27 13:42:25;;;;;;;4.50;2.10;;;;;;;;;;4978044;28;20278;-75
2023/03/27 13:44:50;;;;;;;3.07;1.60;;;;;;;;;;4991128;28;20214;-75
2023/03/27 13:47:31;;;;;;;0.97;0.93;;;;;;;;;;4996094;28;20222;-75
2023/03/27 13:50:15;;;;;;;3.33;1.67;;;;;;;;;;4978249;28;20186;-75
2023/03/27 13:53:07;;;;;;;3.40;2.30;;;;;;;;;;4993866;28;20188;-75
2023/03/27 13:55:50;;;;;;;5.23;1.97;;;;;;;;;;4993323;28;20189;-76
2023/03/27 13:58:39;;;;;;;4.00;1.73;;;;;;;;;;4978463;28;20186;-75
2023/03/27 14:01:05;;;;;;;3.30;2.03;;;;;;;;;;4992860;28;20193;-75
2023/03/27 14:03:48;;;;;;;5.37;2.03;;;;;;;;;;4977158;28;20192;-75
2023/03/27 14:06:13;;;;;;;2.70;2.20;;;;;;;;;;4993693;28;20204;-75
2023/03/27 14:08:54;;;;;;;3.20;1.90;;;;;;;;;;4995699;28;20240;-75
2023/03/27 14:11:33;;;;;;;3.43;1.90;;;;;;;;;;4975877;28;20280;-75
2023/03/27 14:14:00;;;;;;;4.23;2.77;;;;;;;;;;4995302;28;20188;-75
2023/03/27 14:16:43;;;;;;;7.00;3.00;;;;;;;;;;4993283;28;20181;-75
2023/03/27 14:19:11;;;;;;;7.37;2.87;;;;;;;;;;4993637;28;20262;-75
2023/03/27 14:21:51;;;;;;;3.90;2.30;;;;;;;;;;4977810;28;20271;-75
2023/03/27 14:24:25;;;;;;;4.97;2.20;;;;;;;;;;4989165;28;20228;-75
2023/03/27 14:26:51;;;;;;;4.37;2.77;;;;;;;;;;4993757;28;20234;-75
2023/03/27 14:29:19;;;;;;;4.67;2.50;;;;;;;;;;4993531;28;20176;-75
2023/03/27 14:31:45;;;;;;;3.30;1.80;;;;;;;;;;4975622;28;20171;-75
2023/03/27 14:34:17;;;;;;;3.93;2.03;;;;;;;;;;4993264;28;20178;-75
2023/03/27 14:36:48;;;;;;;5.07;1.80;;;;;;;;;;4979228;28;20410;-75
2023/03/27 14:39:15;;;;;;;3.93;3.10;;;;;;;;;;4993695;28;20255;-75
2023/03/27 14:42:06;;;;;;;7.03;3.53;;;;;;;;;;4975971;28;20240;-75
2023/03/27 14:44:32;;;;;;;3.73;2.03;;;;;;;;;;4984245;28;20217;-75
2023/03/27 14:47:07;;;;;;;3.57;1.80;;;;;;;;;;4984121;28;20243;-75
2023/03/27 14:49:44;;;;;;;3.63;1.80;;;;;;;;;;4972153;28;20176;-75
2023/03/27 14:52:10;;;;;;;2.03;1.47;;;;;;;;;;4974439;28;20214;-75
2023/03/27 14:54:36;;;;;;;2.03;1.50;;;;;;;;;;4993780;28;20184;-75
2023/03/27 14:57:03;;;;;;;4.07;1.50;;;;;;;;;;4976633;28;20188;-75
2023/03/27 14:59:33;;;;;;;3.00;1.90;;;;;;;;;;4972616;28;20190;-75